Time;durP1;ratioP1;P1;durP2;ratioP2;P2;SDS_P1;SDS_P2;PMS_P1;PMS_P2;Temp;Humidity;BMP_temperature;BMP_pressure;BME280_temperature;BME280_humidity;BME280_pressure;Samples;Min_cycle;Max_cycle;Signal;HPM_P1;HPM_P2
2020/12/13 00:05:58;;;;;;;33.35;13.50;;;;;;;1.42;100.00;98307.30;4304319;80;28568;-80
2020/12/13 00:12:05;;;;;;;37.98;14.58;;;;;;;1.52;100.00;98308.60;4315272;80;28540;-80
2020/12/13 00:18:07;;;;;;;33.08;13.25;;;;;;;1.25;100.00;98318.13;4321524;81;28548;-80
2020/12/13 00:24:09;;;;;;;35.17;12.82;;;;;;;1.37;100.00;98323.76;4316129;80;28607;-80
2020/12/13 00:30:11;;;;;;;29.32;12.45;;;;;;;1.25;100.00;98336.18;4307654;80;28958;-82
2020/12/13 00:36:18;;;;;;;43.02;17.25;;;;;;;1.32;100.00;98338.89;4315121;80;28620;-81
2020/12/13 00:42:20;;;;;;;55.28;20.50;;;;;;;1.50;100.00;98347.72;4332681;80;28548;-81
2020/12/13 00:48:24;;;;;;;60.63;22.70;;;;;;;1.38;100.00;98351.36;4322795;80;28580;-83
2020/12/13 00:54:28;;;;;;;49.77;20.62;;;;;;;1.37;100.00;98348.41;4302827;80;28548;-81
2020/12/13 01:00:32;;;;;;;58.90;22.20;;;;;;;1.27;100.00;98359.81;4326796;80;44078;-80
2020/12/13 01:06:34;;;;;;;52.83;20.00;;;;;;;1.07;100.00;98374.16;4313644;80;28557;-80
2020/12/13 01:12:36;;;;;;;55.05;21.95;;;;;;;1.12;100.00;98370.44;4307338;80;28562;-81
2020/12/13 01:18:38;;;;;;;60.55;22.55;;;;;;;1.11;100.00;98363.50;4316067;82;28585;-81
2020/12/13 01:24:41;;;;;;;54.65;20.10;;;;;;;1.05;100.00;98374.34;4314945;80;44072;-80
2020/12/13 01:30:43;;;;;;;55.40;21.15;;;;;;;1.13;100.00;98373.92;4323064;80;28539;-81
2020/12/13 01:36:46;;;;;;;58.13;21.25;;;;;;;1.10;100.00;98377.75;4321173;80;44078;-82
2020/12/13 01:42:48;;;;;;;48.63;19.82;;;;;;;1.25;100.00;98371.09;4315640;80;43784;-81
2020/12/13 01:49:03;;;;;;;53.50;20.57;;;;;;;1.18;100.00;98382.11;4317201;80;44089;-81
2020/12/13 01:55:08;;;;;;;52.75;19.62;;;;;;;1.13;100.00;98371.27;4313264;81;28643;-82
2020/12/13 02:01:11;;;;;;;57.08;20.75;;;;;;;1.10;100.00;98368.48;4349042;81;28596;-81
2020/12/13 02:07:16;;;;;;;49.85;19.92;;;;;;;0.96;100.00;98384.71;4314833;81;44510;-81
2020/12/13 02:13:18;;;;;;;45.30;18.95;;;;;;;0.95;100.00;98384.39;4329969;81;28575;-82
2020/12/13 02:19:21;;;;;;;51.35;19.02;;;;;;;1.07;100.00;98376.29;4328997;81;28601;-80
2020/12/13 02:25:23;;;;;;;41.80;15.85;;;;;;;1.17;100.00;98380.47;4350441;81;44448;-80
2020/12/13 02:31:27;;;;;;;47.00;17.52;;;;;;;1.23;100.00;98386.36;4330780;81;28615;-81
2020/12/13 02:37:30;;;;;;;38.60;15.40;;;;;;;1.12;100.00;98390.30;4310260;81;44461;-81
2020/12/13 02:43:33;;;;;;;38.92;14.47;;;;;;;1.29;100.00;98384.80;4337214;81;28696;-81
2020/12/13 02:49:37;;;;;;;33.30;13.03;;;;;;;1.08;100.00;98391.69;4322682;80;44203;-81
2020/12/13 02:55:39;;;;;;;31.42;12.55;;;;;;;1.15;100.00;98393.09;4296362;80;43454;-81
2020/12/13 03:01:41;;;;;;;27.35;11.30;;;;;;;0.98;100.00;98390.63;4326731;82;28615;-81
2020/12/13 03:07:44;;;;;;;29.67;12.70;;;;;;;1.23;100.00;98395.63;4301852;80;28607;-81
2020/12/13 03:13:51;;;;;;;30.00;12.98;;;;;;;1.06;100.00;98398.48;4320664;80;28617;-81
2020/12/13 03:19:53;;;;;;;28.23;11.35;;;;;;;1.16;100.00;98406.15;4323750;82;28601;-80
2020/12/13 03:25:55;;;;;;;28.98;11.38;;;;;;;1.16;100.00;98412.77;4303113;80;43447;-80
2020/12/13 03:31:58;;;;;;;30.45;12.15;;;;;;;1.09;100.00;98414.02;4295765;80;28572;-80
2020/12/13 03:38:00;;;;;;;31.57;12.37;;;;;;;1.02;100.00;98419.72;4306730;82;28654;-81
2020/12/13 03:44:02;;;;;;;27.07;11.93;;;;;;;1.24;100.00;98431.17;4315629;82;28588;-80
2020/12/13 03:50:05;;;;;;;29.82;12.85;;;;;;;1.15;100.00;98434.12;4305040;80;43411;-81
2020/12/13 03:56:07;;;;;;;27.15;11.60;;;;;;;1.09;100.00;98435.69;4339533;80;28616;-81
2020/12/13 04:02:09;;;;;;;24.12;10.63;;;;;;;1.06;100.00;98443.48;4324694;80;28594;-81
2020/12/13 04:08:11;;;;;;;23.73;10.88;;;;;;;1.25;100.00;98440.79;4309523;80;42883;-82
2020/12/13 04:14:13;;;;;;;24.20;11.15;;;;;;;1.24;100.00;98442.29;4323777;80;43575;-81
2020/12/13 04:20:16;;;;;;;23.02;10.50;;;;;;;1.10;100.00;98446.11;4314980;80;28610;-81
2020/12/13 04:26:18;;;;;;;21.42;9.70;;;;;;;1.23;100.00;98450.72;4314083;80;28641;-81
2020/12/13 04:32:21;;;;;;;25.75;10.70;;;;;;;1.19;100.00;98454.77;4329620;80;28595;-80
2020/12/13 04:38:24;;;;;;;23.92;10.35;;;;;;;1.18;100.00;98457.58;4315250;80;28653;-80
2020/12/13 04:44:29;;;;;;;25.10;10.60;;;;;;;1.04;100.00;98468.50;4334359;80;28632;-80
2020/12/13 04:50:35;;;;;;;24.37;10.82;;;;;;;1.05;100.00;98456.93;4311134;80;28630;-79
2020/12/13 04:56:37;;;;;;;25.25;10.53;;;;;;;1.22;100.00;98458.35;4315117;80;28586;-80
2020/12/13 05:02:39;;;;;;;22.07;10.28;;;;;;;1.02;100.00;98462.57;4326317;80;28644;-80
2020/12/13 05:08:42;;;;;;;23.32;10.80;;;;;;;1.21;100.00;98465.17;4315430;80;28607;-79
2020/12/13 05:14:47;;;;;;;25.23;10.45;;;;;;;1.18;100.00;98474.80;4322084;80;28548;-81
2020/12/13 05:20:49;;;;;;;21.93;9.93;;;;;;;1.16;100.00;98482.11;4321885;80;28563;-80
2020/12/13 05:27:05;;;;;;;21.90;9.93;;;;;;;1.03;100.00;98484.90;4316321;80;44444;-79
2020/12/13 05:39:36;;;;;;;20.83;9.30;;;;;;;1.08;100.00;98493.63;4335714;80;28545;-80
2020/12/13 05:51:44;;;;;;;21.15;10.10;;;;;;;1.30;100.00;98501.16;4313783;80;28572;-80
2020/12/13 05:57:49;;;;;;;24.63;10.08;;;;;;;1.23;100.00;98508.98;4328264;80;28574;-80
2020/12/13 06:03:55;;;;;;;24.47;10.48;;;;;;;1.14;100.00;98519.35;4335640;80;28558;-80
2020/12/13 06:10:00;;;;;;;21.60;9.60;;;;;;;0.96;100.00;98527.17;4322665;80;28541;-79
2020/12/13 06:16:04;;;;;;;23.45;10.43;;;;;;;1.24;100.00;98525.19;4331988;80;28595;-79
2020/12/13 06:22:09;;;;;;;21.00;9.48;;;;;;;1.05;100.00;98529.73;4308396;80;28563;-79
2020/12/13 06:28:11;;;;;;;22.33;9.90;;;;;;;0.90;100.00;98531.05;4298626;80;28632;-79
2020/12/13 06:34:14;;;;;;;24.57;10.50;;;;;;;1.02;100.00;98534.89;4333198;80;28592;-82
2020/12/13 06:40:21;;;;;;;20.50;9.50;;;;;;;0.99;100.00;98542.36;4322424;80;28622;-80
2020/12/13 06:46:26;;;;;;;25.43;11.03;;;;;;;1.09;100.00;98554.34;4353664;81;43208;-80
2020/12/13 06:52:32;;;;;;;22.67;9.48;;;;;;;1.16;100.00;98557.58;4325653;80;28547;-80
2020/12/13 06:58:47;;;;;;;23.47;10.78;;;;;;;1.13;100.00;98555.30;4337247;81;28537;-79
2020/12/13 07:04:51;;;;;;;23.62;10.65;;;;;;;1.11;100.00;98562.92;4339089;81;28553;-79
2020/12/13 07:10:54;;;;;;;23.90;10.55;;;;;;;0.97;100.00;98574.30;4339673;81;28545;-78
2020/12/13 07:17:08;;;;;;;25.92;12.37;;;;;;;1.00;100.00;98579.75;4331071;81;28555;-80
2020/12/13 07:23:12;;;;;;;26.30;11.30;;;;;;;1.10;100.00;98594.88;4357633;81;28583;-81
2020/12/13 07:29:15;;;;;;;24.75;11.18;;;;;;;1.19;100.00;98591.14;4351116;81;28595;-82
2020/12/13 07:35:18;;;;;;;23.62;10.98;;;;;;;1.16;100.00;98599.95;4329632;81;43671;-82
2020/12/13 07:41:22;;;;;;;22.87;10.78;;;;;;;1.07;100.00;98597.38;4342656;81;28580;-81
2020/12/13 07:47:27;;;;;;;21.30;9.75;;;;;;;1.19;100.00;98596.44;4305831;81;28540;-81
2020/12/13 07:53:33;;;;;;;28.55;11.75;;;;;;;1.12;100.00;98610.07;4342885;81;28654;-78
2020/12/13 07:59:35;;;;;;;27.17;11.93;;;;;;;1.13;100.00;98616.20;4328354;80;28541;-80
2020/12/13 08:05:41;;;;;;;22.87;11.20;;;;;;;1.06;100.00;98616.91;4319588;80;28550;-80
2020/12/13 08:11:42;;;;;;;26.77;11.40;;;;;;;1.30;100.00;98613.72;4315939;80;28549;-79
2020/12/13 08:17:49;;;;;;;24.20;11.65;;;;;;;1.43;100.00;98613.07;4317238;80;43731;-80
2020/12/13 08:23:57;;;;;;;27.07;12.75;;;;;;;1.28;100.00;98618.88;4311992;80;28955;-81
2020/12/13 08:30:00;;;;;;;23.38;11.93;;;;;;;1.30;100.00;98621.67;4309173;80;28598;-80
2020/12/13 08:36:21;;;;;;;23.52;10.85;;;;;;;1.27;100.00;98630.47;4331166;80;28561;-82
2020/12/13 08:42:24;;;;;;;31.30;12.63;;;;;;;1.32;100.00;98640.01;4335677;80;28562;-79
2020/12/13 08:48:28;;;;;;;28.45;13.08;;;;;;;1.34;100.00;98641.48;4315473;80;28571;-80
2020/12/13 08:54:36;;;;;;;28.20;12.98;;;;;;;1.41;100.00;98645.55;4320309;80;28567;-80
2020/12/13 09:00:38;;;;;;;28.77;12.85;;;;;;;1.43;100.00;98658.63;4330173;80;28559;-80
2020/12/13 09:06:41;;;;;;;28.40;13.10;;;;;;;1.33;100.00;98657.06;4310601;80;28618;-83
2020/12/13 09:12:43;;;;;;;25.97;12.33;;;;;;;1.29;100.00;98666.87;4322430;81;28603;-79
2020/12/13 09:18:45;;;;;;;29.40;12.65;;;;;;;1.49;100.00;98654.74;4322062;80;28552;-81
2020/12/13 09:24:50;;;;;;;21.52;9.48;;;;;;;1.65;100.00;98654.23;4331412;80;43995;-81
2020/12/13 09:30:52;;;;;;;22.42;11.10;;;;;;;1.60;100.00;98660.08;4315577;80;28586;-80
2020/12/13 09:36:54;;;;;;;25.48;11.93;;;;;;;1.68;100.00;98660.52;4331183;80;28563;-80
2020/12/13 09:43:00;;;;;;;28.30;13.18;;;;;;;1.49;100.00;98665.34;4334771;80;28979;-79
2020/12/13 09:49:02;;;;;;;24.67;11.73;;;;;;;1.50;100.00;98656.88;4335003;80;28533;-79
2020/12/13 09:55:05;;;;;;;26.80;11.90;;;;;;;1.59;100.00;98654.46;4328924;81;28535;-83
2020/12/13 10:01:11;;;;;;;27.42;12.15;;;;;;;1.76;100.00;98659.08;4348604;81;28576;-79
2020/12/13 10:13:19;;;;;;;28.42;13.72;;;;;;;1.56;100.00;98665.92;4334066;81;28645;-78
2020/12/13 10:19:21;;;;;;;;;;;;;;;1.65;100.00;98673.63;4333857;81;28653;-82
2020/12/13 10:25:24;;;;;;;28.10;14.15;;;;;;;1.47;100.00;98665.20;4322958;81;20653;-79
2020/12/13 10:31:32;;;;;;;33.33;14.75;;;;;;;1.52;100.00;98666.30;4340735;81;44104;-80
2020/12/13 10:37:35;;;;;;;28.77;13.62;;;;;;;1.43;100.00;98666.57;4313325;81;28544;-82
2020/12/13 10:43:39;;;;;;;29.32;13.68;;;;;;;1.44;100.00;98665.56;4334821;81;28653;-80
2020/12/13 10:49:41;;;;;;;30.95;14.03;;;;;;;1.58;100.00;98671.38;4328200;81;28592;-79
2020/12/13 10:55:46;;;;;;;32.08;15.45;;;;;;;1.58;100.00;98666.06;4335986;81;28533;-80
2020/12/13 11:01:48;;;;;;;29.23;14.18;;;;;;;1.58;100.00;98667.91;4324792;81;28611;-81
2020/12/13 11:07:51;;;;;;;35.60;15.08;;;;;;;1.58;100.00;98671.89;4353746;81;28635;-83
2020/12/13 11:13:53;;;;;;;29.77;14.50;;;;;;;1.49;100.00;98678.59;4335424;81;28579;-81
2020/12/13 11:19:55;;;;;;;34.15;14.78;;;;;;;1.55;100.00;98670.42;4321434;81;28549;-80
2020/12/13 11:25:57;;;;;;;30.43;14.55;;;;;;;1.64;100.00;98671.14;4332251;81;28583;-79
2020/12/13 11:32:04;;;;;;;32.42;15.03;;;;;;;1.57;100.00;98672.38;4324837;81;44145;-80
2020/12/13 11:38:09;;;;;;;32.83;15.20;;;;;;;1.67;100.00;98674.26;4330284;81;28559;-81
2020/12/13 11:44:12;;;;;;;34.30;16.55;;;;;;;1.79;100.00;98685.73;4328767;81;44255;-80
2020/12/13 11:50:14;;;;;;;33.55;15.45;;;;;;;1.57;100.00;98682.98;4319389;81;28576;-78
2020/12/13 11:56:23;;;;;;;31.12;16.30;;;;;;;1.47;100.00;98687.72;4323501;81;28603;-80
2020/12/13 12:02:25;;;;;;;30.48;14.83;;;;;;;1.57;100.00;98693.58;4325606;81;28638;-80
2020/12/13 12:08:27;;;;;;;31.70;16.45;;;;;;;1.77;100.00;98694.38;4320419;81;28607;-81
2020/12/13 12:14:35;;;;;;;37.33;16.85;;;;;;;1.70;100.00;98700.91;4333130;81;28540;-80
2020/12/13 12:20:44;;;;;;;39.45;16.52;;;;;;;1.65;100.00;98697.47;4322535;81;28583;-80
2020/12/13 12:26:54;;;;;;;36.60;16.42;;;;;;;1.66;100.00;98699.12;4334805;81;44497;-81
2020/12/13 12:32:59;;;;;;;40.23;17.95;;;;;;;1.72;100.00;98712.63;4305746;81;28560;-80
2020/12/13 12:39:06;;;;;;;39.45;18.45;;;;;;;1.57;100.00;98710.80;4324538;81;44429;-79
2020/12/13 12:45:09;;;;;;;43.15;18.85;;;;;;;1.47;100.00;98712.89;4323871;81;28593;-79
2020/12/13 12:51:19;;;;;;;38.88;17.65;;;;;;;1.47;100.00;98715.53;4329740;81;28614;-81
2020/12/13 12:57:23;;;;;;;42.15;18.73;;;;;;;1.55;100.00;98725.23;4324477;81;28628;-81
2020/12/13 13:03:28;;;;;;;45.78;19.48;;;;;;;1.36;100.00;98724.23;4318708;81;28547;-81
2020/12/13 13:09:40;;;;;;;49.60;19.70;;;;;;;1.38;100.00;98728.05;4325503;81;28684;-78
2020/12/13 13:22:01;;;;;;;47.10;19.37;;;;;;;1.49;100.00;98736.88;4583226;76;85543;-86
2020/12/13 13:28:03;;;;;;;42.58;18.85;;;;;;;1.59;100.00;98746.41;4487655;78;28542;-79
2020/12/13 13:34:05;;;;;;;41.00;18.27;;;;;;;1.37;100.00;98752.89;4490951;78;28539;-79
2020/12/13 13:40:07;;;;;;;42.00;18.23;;;;;;;1.42;100.00;98755.81;4491636;78;28538;-80
2020/12/13 13:52:32;;;;;;;47.98;18.80;;;;;;;1.45;100.00;98770.02;4475412;79;85561;-81
2020/12/13 13:58:38;;;;;;;40.95;17.73;;;;;;;1.55;100.00;98784.36;4423479;80;28672;-80
2020/12/13 14:04:40;;;;;;;41.02;17.90;;;;;;;1.21;100.00;98782.98;4329353;81;28575;-80
2020/12/13 14:10:44;;;;;;;40.48;17.57;;;;;;;1.20;100.00;98777.36;4294553;81;28607;-83
2020/12/13 14:16:50;;;;;;;41.83;17.50;;;;;;;1.37;100.00;98780.70;4290715;82;44476;-80
2020/12/13 14:22:54;;;;;;;;;;;;;;;1.32;100.00;98782.56;4295306;82;28552;-80
2020/12/13 14:28:56;;;;;;;35.85;16.27;;;;;;;1.37;100.00;98788.14;4283840;82;20386;-79
2020/12/13 14:34:58;;;;;;;39.90;17.45;;;;;;;1.39;100.00;98781.34;4281297;82;28570;-79
2020/12/13 14:41:05;;;;;;;41.53;18.75;;;;;;;1.46;100.00;98792.05;4275925;82;28550;-80
2020/12/13 14:47:08;;;;;;;44.23;17.77;;;;;;;1.24;100.00;98799.31;4274874;82;28698;-80
2020/12/13 14:53:11;;;;;;;43.98;19.40;;;;;;;1.17;100.00;98809.47;4297961;82;28559;-82
2020/12/13 14:59:14;;;;;;;41.63;18.23;;;;;;;1.41;100.00;98816.91;4307367;82;28639;-80
2020/12/13 15:05:17;;;;;;;33.15;14.47;;;;;;;1.39;100.00;98815.27;4341782;81;28614;-81
2020/12/13 15:11:20;;;;;;;28.55;13.30;;;;;;;1.07;100.00;98825.08;4291911;81;28627;-80
2020/12/13 15:23:37;;;;;;;27.60;12.88;;;;;;;0.87;100.00;98833.97;4553539;76;85549;-80
2020/12/13 15:29:40;;;;;;;31.37;13.25;;;;;;;0.80;100.00;98840.95;4426136;79;28646;-81
2020/12/13 15:35:44;;;;;;;28.98;12.75;;;;;;;0.86;100.00;98834.14;4422955;79;28545;-80
2020/12/13 15:41:46;;;;;;;32.38;15.05;;;;;;;0.73;100.00;98834.20;4419356;79;28617;-79
2020/12/13 15:47:49;;;;;;;30.68;13.70;;;;;;;0.87;100.00;98842.40;4425507;79;28549;-81
2020/12/13 15:53:51;;;;;;;31.48;13.60;;;;;;;0.77;100.00;98844.76;4431677;79;44068;-82
2020/12/13 15:59:54;;;;;;;29.37;12.13;;;;;;;0.92;100.00;98850.66;4440670;79;28601;-80
2020/12/13 16:05:58;;;;;;;28.30;12.90;;;;;;;0.94;100.00;98861.41;4438761;79;43438;-80
2020/12/13 16:12:02;;;;;;;27.98;11.85;;;;;;;1.15;100.00;98856.01;4436775;79;28597;-81
2020/12/13 16:18:08;;;;;;;27.85;11.75;;;;;;;1.22;100.00;98864.08;4429903;79;28573;-80
2020/12/13 16:24:18;;;;;;;31.23;13.50;;;;;;;1.31;100.00;98863.52;4422893;79;28641;-80
2020/12/13 16:30:28;;;;;;;30.57;12.68;;;;;;;1.19;100.00;98861.27;4387484;79;28616;-79
2020/12/13 16:36:30;;;;;;;28.00;12.75;;;;;;;1.17;100.00;98866.41;4371823;80;43412;-79
2020/12/13 16:48:53;;;;;;;31.48;13.30;;;;;;;1.43;100.00;98881.98;4384169;79;85577;-78
2020/12/13 16:54:52;;;;;;;39.48;16.93;;;;;;;1.15;100.00;98891.77;4328053;81;28590;-82
2020/12/13 17:00:55;;;;;;;44.53;19.92;;;;;;;1.31;100.00;98885.55;4312788;80;43785;-80
2020/12/13 17:07:00;;;;;;;44.70;20.25;;;;;;;1.21;100.00;98891.05;4313975;80;28620;-81
2020/12/13 17:13:03;;;;;;;44.10;20.50;;;;;;;1.14;100.00;98898.55;4320085;80;28573;-81
2020/12/13 17:19:05;;;;;;;41.08;17.10;;;;;;;1.08;100.00;98890.80;4314538;80;28687;-80
2020/12/13 17:25:07;;;;;;;43.75;18.37;;;;;;;1.10;100.00;98897.58;4309300;80;28604;-80
2020/12/13 17:31:10;;;;;;;40.78;18.07;;;;;;;1.14;100.00;98902.52;4317503;80;28627;-79
2020/12/13 17:37:12;;;;;;;34.38;16.32;;;;;;;0.94;100.00;98913.03;4331732;80;28617;-79
2020/12/13 17:43:17;;;;;;;33.67;14.10;;;;;;;1.00;100.00;98924.77;4317180;80;28631;-83
2020/12/13 17:49:19;;;;;;;36.03;16.32;;;;;;;1.03;100.00;98919.59;4334257;80;28545;-80
2020/12/13 17:55:31;;;;;;;32.15;14.58;;;;;;;0.90;100.00;98930.75;4330259;80;28600;-82
2020/12/13 18:01:28;;;;;;;33.55;16.70;;;;;;;0.79;100.00;98922.19;4334783;80;44153;-80
2020/12/13 18:07:31;;;;;;;34.15;14.78;;;;;;;0.75;100.00;98932.77;4327720;81;44085;-82
2020/12/13 18:13:35;;;;;;;29.05;12.88;;;;;;;0.87;100.00;98937.69;4325077;80;28618;-79
2020/12/13 18:19:40;;;;;;;29.15;14.18;;;;;;;0.94;100.00;98946.12;4323498;80;28657;-82
2020/12/13 18:25:44;;;;;;;29.15;14.28;;;;;;;1.01;100.00;98948.08;4332337;80;43413;-80
2020/12/13 18:31:46;;;;;;;27.42;11.83;;;;;;;0.91;100.00;98965.50;4331363;80;28544;-79
2020/12/13 18:37:49;;;;;;;31.60;13.48;;;;;;;0.95;100.00;98964.15;4335616;80;28580;-79
2020/12/13 18:43:51;;;;;;;28.17;12.85;;;;;;;0.96;100.00;98965.31;4328654;80;43431;-79
2020/12/13 18:49:54;;;;;;;23.95;10.72;;;;;;;1.02;100.00;98975.72;4301419;82;28611;-82
2020/12/13 18:55:56;;;;;;;22.85;10.88;;;;;;;0.94;100.00;98979.22;4318873;80;28582;-80
2020/12/13 19:02:00;;;;;;;23.60;11.30;;;;;;;0.96;100.00;98992.27;4313685;80;28535;-80
2020/12/13 19:08:07;;;;;;;27.65;12.33;;;;;;;0.82;100.00;98995.11;4313340;80;28594;-83
2020/12/13 19:14:09;;;;;;;22.37;10.93;;;;;;;0.76;100.00;98993.16;4316770;80;44450;-85
2020/12/13 19:20:12;;;;;;;22.82;11.73;;;;;;;0.80;100.00;99004.56;4317013;80;28641;-85
2020/12/13 19:26:14;;;;;;;24.45;10.48;;;;;;;0.77;100.00;99010.17;4306053;80;28616;-84
2020/12/13 19:32:16;;;;;;;23.85;10.98;;;;;;;0.75;100.00;99020.63;4311681;82;43648;-84
2020/12/13 19:38:19;;;;;;;22.13;10.35;;;;;;;0.85;100.00;99015.97;4304094;80;44431;-82
2020/12/13 19:44:21;;;;;;;17.42;9.13;;;;;;;0.83;100.00;99024.07;4313315;80;28639;-82
2020/12/13 19:50:24;;;;;;;14.47;7.50;;;;;;;0.85;100.00;99033.17;4337048;80;28591;-80
2020/12/13 19:56:29;;;;;;;15.72;8.18;;;;;;;0.99;100.00;99038.77;4335075;80;28555;-81
2020/12/13 20:02:32;;;;;;;19.10;8.60;;;;;;;0.97;100.00;99041.58;4336565;81;28544;-79
2020/12/13 20:08:35;;;;;;;18.57;9.55;;;;;;;0.97;100.00;99040.25;4326891;81;28579;-81
2020/12/13 20:28:24;;;;;;;17.23;8.53;;;;;;;0.99;100.00;99044.06;4205360;84;28573;-82
2020/12/13 20:41:16;;;;;;;15.88;8.65;;;;;;;0.93;100.00;99044.24;4182475;83;28680;-80
2020/12/13 20:48:31;;;;;;;16.17;8.40;;;;;;;0.99;100.00;99048.03;4183007;82;43954;-81
2020/12/13 22:32:45;;;;;;;24.40;12.30;;;;;;;0.96;100.00;99090.23;4607660;76;85984;-80
2020/12/13 22:38:48;;;;;;;26.20;12.75;;;;;;;1.02;100.00;99092.22;4496809;78;28624;-82
2020/12/13 22:44:50;;;;;;;25.62;11.97;;;;;;;1.10;100.00;99080.78;4500202;78;43354;-83
2020/12/13 22:50:52;;;;;;;27.20;11.75;;;;;;;1.10;100.00;99092.70;4471822;78;28539;-81
2020/12/13 22:56:54;;;;;;;27.25;12.58;;;;;;;1.08;100.00;99088.07;4502251;78;28533;-80
2020/12/13 23:02:57;;;;;;;25.90;13.13;;;;;;;1.18;100.00;99090.52;4497002;78;28578;-83
2020/12/13 23:09:00;;;;;;;28.80;13.50;;;;;;;1.13;100.00;99087.05;4473851;78;28574;-82
2020/12/13 23:15:07;;;;;;;33.20;15.63;;;;;;;1.13;100.00;99100.81;4494781;78;28593;-82
2020/12/13 23:21:08;;;;;;;39.10;16.10;;;;;;;1.08;100.00;99111.39;4478624;78;44761;-82
2020/12/13 23:27:10;;;;;;;33.23;15.70;;;;;;;0.96;100.00;99110.92;4509542;77;28637;-83
2020/12/13 23:33:14;;;;;;;33.13;15.63;;;;;;;0.95;100.00;99095.20;4504382;78;28607;-82
2020/12/13 23:39:17;;;;;;;32.60;15.58;;;;;;;1.08;100.00;99103.96;4488452;78;44169;-83
2020/12/13 23:45:20;;;;;;;32.38;15.63;;;;;;;1.00;100.00;99102.16;4500549;78;28609;-82
2020/12/13 23:51:22;;;;;;;32.17;15.18;;;;;;;1.08;100.00;99109.26;4490789;78;28612;-81
2020/12/13 23:57:25;;;;;;;31.70;12.80;;;;;;;1.01;100.00;99102.48;4489178;78;43794;-79
